createdAt,value
2023-03-08T00:02:30.912Z,92.98
2023-03-08T00:12:36.690Z,93.09
2023-03-08T00:22:59.707Z,93.58
2023-03-08T00:33:06.402Z,93.49
2023-03-08T00:43:12.325Z,93.76
2023-03-08T00:53:18.412Z,94.09
2023-03-08T01:03:24.803Z,94.02
2023-03-08T01:13:29.982Z,93.83
2023-03-08T01:23:35.896Z,93.80
2023-03-08T01:33:42.207Z,93.81
2023-03-08T01:43:46.990Z,94.28
2023-03-08T01:53:54.278Z,94.85
2023-03-08T02:04:00.225Z,95.03
2023-03-08T02:14:06.536Z,95.01
2023-03-08T02:24:19.557Z,95.26
2023-03-08T02:34:25.197Z,95.15
2023-03-08T02:44:30.779Z,95.38
2023-03-08T02:54:36.338Z,95.73
2023-03-08T03:04:41.962Z,95.74
2023-03-08T03:14:47.648Z,95.73
2023-03-08T03:24:54.330Z,95.61
2023-03-08T03:35:00.133Z,95.67
2023-03-08T03:45:06.999Z,96.07
2023-03-08T03:55:13.426Z,95.76
2023-03-08T04:05:19.362Z,96.12
2023-03-08T04:15:25.018Z,95.95
2023-03-08T04:25:30.697Z,95.99
2023-03-08T04:35:36.536Z,96.18
2023-03-08T04:45:42.210Z,96.29
2023-03-08T04:55:48.009Z,96.20
2023-03-08T05:05:56.368Z,96.71
2023-03-08T05:16:02.213Z,97.01
2023-03-08T05:26:10.052Z,96.82
2023-03-08T05:36:16.325Z,96.82
2023-03-08T05:46:22.718Z,97.23
2023-03-08T05:56:28.560Z,97.12
2023-03-08T06:06:35.002Z,96.80
2023-03-08T06:16:39.286Z,96.91
2023-03-08T06:26:45.016Z,96.74
2023-03-08T06:36:52.064Z,96.38
2023-03-08T06:46:57.948Z,95.89
2023-03-08T06:57:05.766Z,95.44
2023-03-08T07:07:12.428Z,95.22
2023-03-08T07:17:18.568Z,92.77
2023-03-08T07:27:24.221Z,86.65
2023-03-08T07:37:29.977Z,88.22
2023-03-08T07:47:35.729Z,85.26
2023-03-08T07:57:41.376Z,76.76
2023-03-08T08:07:48.552Z,72.36
2023-03-08T08:17:54.560Z,69.93
2023-03-08T08:28:00.170Z,68.47
2023-03-08T08:38:05.854Z,68.20
2023-03-08T08:48:11.630Z,69.00
2023-03-08T08:58:17.803Z,64.91
2023-03-08T09:08:23.475Z,60.94
2023-03-08T09:18:29.150Z,56.98
2023-03-08T09:28:35.266Z,57.23
2023-03-08T09:38:41.163Z,58.15
2023-03-08T09:48:51.084Z,59.20
2023-03-08T09:59:00.777Z,59.24
2023-03-08T10:09:16.390Z,59.85
2023-03-08T10:19:29.610Z,61.28
2023-03-08T10:29:35.305Z,61.01
2023-03-08T10:39:53.160Z,60.91
2023-03-08T10:50:18.125Z,59.96
2023-03-08T11:00:32.073Z,60.70
2023-03-08T11:10:40.440Z,61.36
2023-03-08T11:20:50.371Z,61.47
2023-03-08T11:31:09.437Z,61.61
2023-03-08T11:41:24.827Z,61.19
2023-03-08T11:51:38.811Z,61.84
2023-03-08T12:01:49.661Z,61.57
2023-03-08T12:12:01.363Z,62.26
2023-03-08T12:22:18.345Z,62.77
2023-03-08T12:32:25.642Z,63.37
2023-03-08T12:42:37.273Z,63.27
2023-03-08T12:52:43.646Z,63.41
2023-03-08T13:02:59.528Z,63.48
2023-03-08T13:13:37.591Z,63.16
2023-03-08T13:23:50.710Z,62.70
2023-03-08T13:33:57.650Z,63.25
2023-03-08T13:44:08.265Z,63.84
2023-03-08T13:54:23.454Z,63.92
2023-03-08T14:04:31.620Z,64.21
2023-03-08T14:14:40.623Z,64.23
2023-03-08T14:24:54.340Z,64.35
2023-03-08T14:35:16.295Z,64.47
2023-03-08T14:45:25.004Z,64.84
2023-03-08T14:55:33.503Z,65.01
2023-03-08T15:05:39.924Z,66.23
2023-03-08T15:15:46.233Z,67.65
2023-03-08T15:25:52.679Z,69.18
2023-03-08T15:35:59.208Z,70.94
2023-03-08T15:46:04.891Z,72.63
2023-03-08T15:56:10.640Z,73.88
2023-03-08T16:06:18.224Z,74.71
2023-03-08T16:16:32.292Z,75.77
2023-03-08T16:26:48.453Z,76.45
2023-03-08T16:36:56.116Z,77.14
2023-03-08T16:47:01.914Z,77.89
2023-03-08T16:57:18.559Z,78.45
2023-03-08T17:07:24.577Z,79.01
2023-03-08T17:17:30.275Z,79.76
2023-03-08T17:27:36.014Z,80.58
2023-03-08T17:37:42.553Z,81.53
2023-03-08T17:47:46.867Z,82.18
2023-03-08T17:57:52.517Z,83.27
2023-03-08T18:07:58.888Z,84.53
2023-03-08T18:18:04.676Z,85.78
2023-03-08T18:28:10.501Z,87.34
2023-03-08T18:38:16.286Z,88.11
2023-03-08T18:48:22.645Z,89.00
2023-03-08T18:58:27.158Z,90.27
2023-03-08T19:08:33.321Z,90.88
2023-03-08T19:18:38.938Z,91.86
2023-03-08T19:28:44.766Z,93.04
2023-03-08T19:38:50.765Z,94.48
2023-03-08T19:48:57.654Z,94.86
2023-03-08T19:59:04.142Z,95.27
2023-03-08T20:09:09.492Z,95.49
2023-03-08T20:19:15.274Z,95.67
2023-03-08T20:29:21.062Z,95.73
2023-03-08T20:39:26.743Z,96.03
2023-03-08T20:49:32.462Z,96.09
2023-03-08T20:59:38.432Z,96.14
2023-03-08T21:09:46.016Z,96.58
2023-03-08T21:19:51.960Z,96.86
2023-03-08T21:29:58.223Z,96.87
2023-03-08T21:40:07.296Z,97.32
2023-03-08T21:50:14.542Z,97.33
2023-03-08T22:00:20.911Z,97.80
2023-03-08T22:10:26.625Z,97.91
2023-03-08T22:20:32.303Z,98.11
2023-03-08T22:30:37.940Z,98.09
2023-03-08T22:40:44.065Z,98.49
2023-03-08T22:50:56.305Z,98.75
2023-03-08T23:01:15.090Z,98.77
2023-03-08T23:11:20.841Z,98.99
2023-03-08T23:21:29.434Z,99.22
2023-03-08T23:31:37.380Z,99.32
2023-03-08T23:41:43.313Z,99.28
2023-03-08T23:51:54.061Z,99.38
